Time;durP1;ratioP1;P1;durP2;ratioP2;P2;SDS_P1;SDS_P2;PMS_P1;PMS_P2;Temp;Humidity;BMP_temperature;BMP_pressure;BME280_temperature;BME280_humidity;BME280_pressure;Samples;Min_cycle;Max_cycle;Signal;HPM_P1;HPM_P2
2024/02/02 00:00:27;;;;;;;1.88;0.95;;;;;;;4.00;100.00;97606.22;1026981;28;20461;-68
2024/02/02 00:00:57;;;;;;;3.08;2.13;;;;;;;3.98;100.00;97608.16;1030668;28;20030;-72
2024/02/02 00:01:28;;;;;;;1.55;1.45;;;;;;;3.99;100.00;97599.41;1034638;28;20077;-70
2024/02/02 00:01:59;;;;;;;2.90;1.85;;;;;;;3.98;100.00;97600.38;1035223;28;20470;-70
2024/02/02 00:02:29;;;;;;;0.60;0.60;;;;;;;3.97;100.00;97600.56;1034568;28;20253;-71
2024/02/02 00:03:00;;;;;;;1.25;1.15;;;;;;;3.97;100.00;97598.75;1026239;28;20108;-69
2024/02/02 00:03:30;;;;;;;2.92;1.95;;;;;;;3.98;100.00;97608.16;1026878;28;20089;-69
2024/02/02 00:04:02;;;;;;;2.00;1.73;;;;;;;3.98;100.00;97604.75;1022661;28;20074;-69
2024/02/02 00:04:33;;;;;;;1.13;1.10;;;;;;;3.96;100.00;97604.16;1023320;28;20149;-70
2024/02/02 00:05:04;;;;;;;1.15;1.15;;;;;;;3.96;100.00;97604.94;1026481;28;20423;-70
2024/02/02 00:05:34;;;;;;;0.77;0.65;;;;;;;3.95;100.00;97603.31;1030586;28;20037;-68
2024/02/02 00:06:05;;;;;;;0.80;0.47;;;;;;;3.95;100.00;97605.09;1026830;28;20286;-71
2024/02/02 00:06:35;;;;;;;2.80;1.58;;;;;;;3.95;100.00;97598.13;1025696;28;20050;-71
2024/02/02 00:07:06;;;;;;;0.95;0.95;;;;;;;3.91;100.00;97594.25;1024527;28;20035;-69
2024/02/02 00:07:36;;;;;;;0.55;0.55;;;;;;;3.91;100.00;97583.88;1028635;28;20071;-69
2024/02/02 00:08:07;;;;;;;1.58;1.48;;;;;;;3.93;100.00;97594.91;1028835;28;20066;-69
2024/02/02 00:08:37;;;;;;;1.58;0.63;;;;;;;3.93;100.00;97591.50;1034948;28;20370;-71
2024/02/02 00:09:09;;;;;;;1.90;1.42;;;;;;;3.91;100.00;97590.88;1029006;28;20073;-72
2024/02/02 00:09:39;;;;;;;1.40;1.15;;;;;;;3.87;100.00;97589.59;1030848;28;20018;-73
2024/02/02 00:10:10;;;;;;;2.47;1.85;;;;;;;3.87;100.00;97587.81;1030721;28;20703;-71
2024/02/02 00:10:40;;;;;;;0.95;0.80;;;;;;;3.88;100.00;97589.41;1026888;28;20110;-69
2024/02/02 00:11:11;;;;;;;3.28;1.98;;;;;;;3.86;100.00;97586.19;1026297;28;20107;-70
2024/02/02 00:11:46;;;;;;;0.68;0.68;;;;;;;3.86;100.00;97583.59;1027056;28;20513;-70
2024/02/02 00:12:16;;;;;;;2.22;1.90;;;;;;;3.89;100.00;97580.66;1022661;29;20263;-69
2024/02/02 00:12:47;;;;;;;1.30;1.02;;;;;;;3.86;100.00;97588.78;1020946;28;20772;-70
2024/02/02 00:13:18;;;;;;;0.70;0.65;;;;;;;3.87;100.00;97589.59;1022605;29;20031;-70
2024/02/02 00:13:49;;;;;;;1.77;1.30;;;;;;;3.86;100.00;97588.00;1019510;28;20271;-70
2024/02/02 00:14:19;;;;;;;0.45;0.43;;;;;;;3.82;100.00;97582.31;1030988;28;20090;-69
2024/02/02 00:14:50;;;;;;;0.90;0.88;;;;;;;3.82;100.00;97587.50;1030664;28;20068;-71
2024/02/02 00:15:20;;;;;;;1.35;1.30;;;;;;;3.81;100.00;97585.09;1034588;28;20100;-71
2024/02/02 00:15:52;;;;;;;3.10;1.55;;;;;;;3.81;100.00;97588.50;1030617;28;20044;-69
2024/02/02 00:16:23;;;;;;;1.02;0.95;;;;;;;3.79;100.00;97593.06;1030671;28;20022;-71
2024/02/02 00:16:53;;;;;;;3.85;2.65;;;;;;;3.76;100.00;97593.41;1034766;28;20269;-71
2024/02/02 00:17:24;;;;;;;1.60;1.50;;;;;;;3.75;100.00;97587.38;1034760;28;20034;-70
2024/02/02 00:17:54;;;;;;;2.53;1.65;;;;;;;3.72;100.00;97589.53;1038598;28;20670;-67
2024/02/02 00:18:25;;;;;;;2.28;2.08;;;;;;;3.73;100.00;97591.97;1034884;28;20049;-68
2024/02/02 00:18:55;;;;;;;3.17;2.08;;;;;;;3.74;100.00;97582.38;1034003;28;20520;-68
2024/02/02 00:19:26;;;;;;;1.90;1.05;;;;;;;3.74;100.00;97590.19;1026443;28;20040;-71
2024/02/02 00:19:56;;;;;;;1.83;1.58;;;;;;;3.74;100.00;97584.97;1027078;28;20072;-69
2024/02/02 00:20:27;;;;;;;1.20;1.15;;;;;;;3.69;100.00;97579.50;1026450;28;20414;-70
2024/02/02 00:20:57;;;;;;;1.55;1.10;;;;;;;3.72;100.00;97582.56;1026978;28;20063;-69
2024/02/02 00:21:28;;;;;;;2.53;0.60;;;;;;;3.71;100.00;97582.72;1030522;28;20057;-69
2024/02/02 00:21:59;;;;;;;2.03;1.10;;;;;;;3.71;100.00;97580.13;1030784;28;20053;-70
2024/02/02 00:22:29;;;;;;;2.10;1.85;;;;;;;3.68;100.00;97585.66;1030985;28;20042;-69
2024/02/02 00:23:00;;;;;;;3.22;1.75;;;;;;;3.70;100.00;97584.53;1034640;28;20428;-71
2024/02/02 00:23:30;;;;;;;0.93;0.88;;;;;;;3.67;100.00;97578.88;1034685;28;20026;-69
2024/02/02 00:24:01;;;;;;;1.25;1.15;;;;;;;3.69;100.00;97585.50;1031080;28;20094;-69
2024/02/02 00:24:31;;;;;;;2.35;1.10;;;;;;;3.68;100.00;97577.88;1034666;28;20554;-68
2024/02/02 00:25:02;;;;;;;2.25;1.60;;;;;;;3.65;100.00;97584.22;1035108;28;20030;-73
2024/02/02 00:25:33;;;;;;;0.38;0.38;;;;;;;3.63;100.00;97581.00;1030801;28;20030;-69
2024/02/02 00:26:03;;;;;;;1.52;1.42;;;;;;;3.63;100.00;97582.78;1034596;28;20544;-70
2024/02/02 00:26:34;;;;;;;0.93;0.63;;;;;;;3.63;100.00;97583.59;1031091;28;20033;-70
2024/02/02 00:27:05;;;;;;;1.45;1.35;;;;;;;3.60;100.00;97588.34;1022540;28;20034;-68
2024/02/02 00:27:35;;;;;;;0.85;0.85;;;;;;;3.61;100.00;97590.75;1022597;29;20114;-69
2024/02/02 00:28:06;;;;;;;1.00;0.98;;;;;;;3.60;100.00;97589.13;1022863;28;20051;-71
2024/02/02 00:28:36;;;;;;;2.05;1.13;;;;;;;3.60;100.00;97589.13;1026925;28;20568;-69
2024/02/02 00:29:07;;;;;;;1.10;0.95;;;;;;;3.59;100.00;97587.53;1030506;28;20083;-68
2024/02/02 00:29:37;;;;;;;3.53;2.38;;;;;;;3.58;100.00;97590.28;1030825;28;20026;-69
2024/02/02 00:30:08;;;;;;;0.82;0.82;;;;;;;3.59;100.00;97578.91;1030502;28;20030;-73
2024/02/02 00:30:40;;;;;;;0.75;0.75;;;;;;;3.59;100.00;97586.69;1028552;28;20130;-68
2024/02/02 00:31:10;;;;;;;2.42;0.68;;;;;;;3.58;100.00;97579.91;1030915;28;20642;-68
2024/02/02 00:31:41;;;;;;;3.50;1.80;;;;;;;3.60;100.00;97583.13;1037698;28;20288;-69
2024/02/02 00:32:14;;;;;;;1.67;1.50;;;;;;;3.57;100.00;97583.47;1034795;28;20613;-69
2024/02/02 00:32:44;;;;;;;2.63;1.88;;;;;;;3.54;100.00;97585.44;1034739;28;20124;-69
2024/02/02 00:33:15;;;;;;;2.22;2.03;;;;;;;3.57;100.00;97583.47;1034709;28;20704;-71
2024/02/02 00:33:46;;;;;;;0.70;0.63;;;;;;;3.57;100.00;97586.06;1035152;28;20030;-72
2024/02/02 00:34:16;;;;;;;2.97;2.65;;;;;;;3.54;100.00;97593.22;1038754;28;20180;-70
2024/02/02 00:34:47;;;;;;;1.35;1.00;;;;;;;3.58;100.00;97587.69;1038832;28;20017;-73
2024/02/02 00:35:17;;;;;;;1.45;1.05;;;;;;;3.50;100.00;97585.97;1030661;28;20018;-69
2024/02/02 00:35:48;;;;;;;4.75;1.02;;;;;;;3.56;100.00;97587.06;1029532;28;20030;-73
2024/02/02 00:36:19;;;;;;;1.23;0.47;;;;;;;3.59;100.00;97590.13;1026634;28;20033;-70
2024/02/02 00:36:49;;;;;;;1.02;0.95;;;;;;;3.57;100.00;97586.06;1026560;28;20030;-71
2024/02/02 00:37:20;;;;;;;0.98;0.95;;;;;;;3.58;100.00;97585.09;1031020;28;20069;-71
2024/02/02 00:37:50;;;;;;;0.95;0.88;;;;;;;3.57;100.00;97589.47;1030746;28;20537;-71
2024/02/02 00:38:20;;;;;;;0.68;0.68;;;;;;;3.60;100.00;97591.72;1032661;28;20030;-69
2024/02/02 00:38:51;;;;;;;6.50;1.58;;;;;;;3.59;100.00;97586.69;1031033;28;20034;-69
2024/02/02 00:39:21;;;;;;;1.70;0.95;;;;;;;3.58;100.00;97590.28;1030202;28;20490;-69
2024/02/02 00:39:52;;;;;;;1.38;1.27;;;;;;;3.54;100.00;97590.63;1030492;28;20065;-72
2024/02/02 00:40:22;;;;;;;1.30;1.15;;;;;;;3.54;100.00;97585.44;1030336;28;20034;-70
2024/02/02 00:40:53;;;;;;;1.90;1.65;;;;;;;3.53;100.00;97591.63;1029685;28;20053;-69
2024/02/02 00:41:23;;;;;;;1.23;1.13;;;;;;;3.52;100.00;97597.78;1031123;28;20517;-71
2024/02/02 00:41:54;;;;;;;0.80;0.80;;;;;;;3.47;100.00;97578.50;1031584;28;20078;-71
2024/02/02 00:42:24;;;;;;;0.60;0.60;;;;;;;3.53;100.00;97590.81;1028012;28;20470;-69
2024/02/02 00:42:55;;;;;;;2.13;2.03;;;;;;;3.52;100.00;97587.41;1034930;28;20074;-69
2024/02/02 00:43:25;;;;;;;1.08;1.08;;;;;;;3.53;100.00;97593.41;1033011;28;20034;-69
2024/02/02 00:43:56;;;;;;;0.52;0.52;;;;;;;3.52;100.00;97590.00;1030885;28;20069;-70
2024/02/02 00:44:26;;;;;;;1.50;1.35;;;;;;;3.51;100.00;97588.38;1030899;28;20081;-70
2024/02/02 00:44:57;;;;;;;1.88;1.40;;;;;;;3.47;100.00;97581.91;1023741;28;20023;-69
2024/02/02 00:45:28;;;;;;;0.90;0.90;;;;;;;3.51;100.00;97580.59;1031462;28;20030;-71
2024/02/02 00:45:58;;;;;;;3.15;1.60;;;;;;;3.51;100.00;97588.38;1031426;28;20277;-70
2024/02/02 00:46:29;;;;;;;0.68;0.68;;;;;;;3.51;100.00;97585.78;1031458;28;20509;-70
2024/02/02 00:46:59;;;;;;;1.52;1.38;;;;;;;3.50;100.00;97589.34;1027524;28;20065;-69
2024/02/02 00:47:30;;;;;;;1.13;1.13;;;;;;;3.51;100.00;97590.97;1027364;28;20035;-70
2024/02/02 00:48:00;;;;;;;1.55;0.93;;;;;;;3.52;100.00;97590.00;1023358;28;20075;-70
2024/02/02 00:48:32;;;;;;;0.88;0.88;;;;;;;3.45;100.00;97583.84;1027647;28;20039;-69
2024/02/02 00:49:03;;;;;;;1.33;1.17;;;;;;;3.49;100.00;97592.94;1026797;28;20457;-71
2024/02/02 00:49:33;;;;;;;1.45;0.98;;;;;;;3.48;100.00;97591.31;1031755;28;20790;-69
2024/02/02 00:50:05;;;;;;;1.98;0.85;;;;;;;3.46;100.00;97593.28;1035597;28;20034;-67
2024/02/02 00:50:36;;;;;;;1.77;1.25;;;;;;;3.45;100.00;97586.44;1028031;28;20027;-68
2024/02/02 00:51:06;;;;;;;3.15;1.60;;;;;;;3.45;100.00;97591.66;1031570;28;20320;-69
2024/02/02 00:51:37;;;;;;;0.40;0.40;;;;;;;3.44;100.00;97590.03;1031373;28;20018;-69
2024/02/02 00:52:07;;;;;;;1.08;0.98;;;;;;;3.43;100.00;97596.22;1031467;28;20054;-68
2024/02/02 00:52:38;;;;;;;1.30;1.15;;;;;;;3.44;100.00;97590.03;1039951;28;20033;-68
2024/02/02 00:53:08;;;;;;;1.38;0.82;;;;;;;3.46;100.00;97597.66;1037625;28;20026;-72
2024/02/02 00:53:39;;;;;;;0.80;0.80;;;;;;;3.41;100.00;97590.38;1035695;28;20029;-70
2024/02/02 00:54:12;;;;;;;3.97;1.05;;;;;;;3.43;100.00;97591.03;1023395;29;20090;-69
2024/02/02 00:54:43;;;;;;;1.70;1.60;;;;;;;3.42;100.00;97588.59;1023150;28;20042;-71
2024/02/02 00:55:13;;;;;;;3.85;1.10;;;;;;;3.45;100.00;97586.44;1023659;29;20301;-69
2024/02/02 00:55:44;;;;;;;0.95;0.88;;;;;;;3.47;100.00;97596.69;1020874;28;20480;-70
2024/02/02 00:56:14;;;;;;;1.25;1.08;;;;;;;3.45;100.00;97596.03;1031850;28;20026;-70
2024/02/02 00:56:45;;;;;;;0.82;0.60;;;;;;;3.46;100.00;97587.28;1038452;28;20022;-69
2024/02/02 00:57:15;;;;;;;5.07;1.75;;;;;;;3.45;100.00;97596.84;1037194;28;20651;-69
2024/02/02 00:57:47;;;;;;;1.10;1.02;;;;;;;3.48;100.00;97596.50;1042111;28;20061;-70
2024/02/02 00:58:17;;;;;;;1.50;1.40;;;;;;;3.47;100.00;97592.28;1041563;28;20026;-69
2024/02/02 00:58:48;;;;;;;0.75;0.70;;;;;;;3.46;100.00;97589.88;1041649;28;20260;-69
2024/02/02 00:59:18;;;;;;;0.25;0.25;;;;;;;3.34;100.00;97573.06;1036623;28;20044;-69
2024/02/02 00:59:50;;;;;;;0.70;0.70;;;;;;;3.46;100.00;97593.28;1031566;28;20030;-72
2024/02/02 01:00:21;;;;;;;0.65;0.52;;;;;;;3.46;100.00;97587.28;1028618;28;20106;-71
2024/02/02 01:00:51;;;;;;;1.80;1.58;;;;;;;3.47;100.00;97588.91;1020443;29;20268;-66
2024/02/02 01:01:22;;;;;;;0.10;0.10;;;;;;;3.49;100.00;97592.94;1024976;28;20117;-69
2024/02/02 01:01:52;;;;;;;1.67;1.58;;;;;;;3.47;100.00;97584.50;1032042;28;20034;-71
2024/02/02 01:02:23;;;;;;;0.80;0.80;;;;;;;3.47;100.00;97589.69;1032526;28;20494;-71
2024/02/02 01:02:53;;;;;;;0.68;0.68;;;;;;;3.46;100.00;97588.09;1032739;28;20030;-69
2024/02/02 01:03:24;;;;;;;2.83;2.13;;;;;;;3.43;100.00;97585.84;1032601;28;20288;-68
2024/02/02 01:03:54;;;;;;;1.35;0.90;;;;;;;3.43;100.00;97585.84;1028645;28;20019;-69
2024/02/02 01:04:25;;;;;;;3.83;1.75;;;;;;;3.46;100.00;97587.28;1024604;28;20024;-68
2024/02/02 01:04:55;;;;;;;0.88;0.88;;;;;;;3.46;100.00;97590.69;1016982;29;20080;-69
2024/02/02 01:05:25;;;;;;;2.13;1.48;;;;;;;3.45;100.00;97586.44;1019554;29;20500;-69
2024/02/02 01:05:56;;;;;;;0.68;0.40;;;;;;;3.44;100.00;97584.84;1019800;29;20028;-68
2024/02/02 01:06:27;;;;;;;1.23;1.10;;;;;;;3.44;100.00;97590.03;1023717;28;20034;-72
2024/02/02 01:06:57;;;;;;;1.30;0.98;;;;;;;3.42;100.00;97583.41;1039307;28;20472;-68
2024/02/02 01:07:28;;;;;;;1.00;0.85;;;;;;;3.41;100.00;97580.00;1040307;28;20025;-68
2024/02/02 01:07:58;;;;;;;1.25;1.25;;;;;;;3.39;100.00;97576.78;1039887;28;20473;-68
2024/02/02 01:08:29;;;;;;;3.35;1.17;;;;;;;3.35;100.00;97578.09;1035340;28;20098;-69
2024/02/02 01:08:59;;;;;;;2.85;0.82;;;;;;;3.40;100.00;97583.59;1023006;28;20478;-69
2024/02/02 01:09:30;;;;;;;0.52;0.52;;;;;;;3.41;100.00;97580.00;1023338;29;20217;-68
2024/02/02 01:10:00;;;;;;;3.33;2.88;;;;;;;3.38;100.00;97569.97;1019309;29;20036;-69
2024/02/02 01:10:31;;;;;;;0.88;0.88;;;;;;;3.43;100.00;97572.84;1015600;28;20485;-68
2024/02/02 01:11:02;;;;;;;1.05;1.05;;;;;;;3.38;100.00;97580.34;1023250;29;20039;-70
2024/02/02 01:11:32;;;;;;;1.27;1.27;;;;;;;3.40;100.00;97582.78;1019506;29;20034;-68
2024/02/02 01:12:03;;;;;;;1.20;0.80;;;;;;;3.42;100.00;97567.81;1019359;29;20464;-70
2024/02/02 01:12:35;;;;;;;1.08;0.95;;;;;;;3.43;100.00;97582.44;1019575;29;20031;-69
2024/02/02 01:13:05;;;;;;;0.88;0.88;;;;;;;3.42;100.00;97580.78;1023854;28;20057;-68
2024/02/02 01:13:36;;;;;;;2.40;1.08;;;;;;;3.44;100.00;97581.44;1025601;28;20273;-69
2024/02/02 01:14:06;;;;;;;1.38;1.05;;;;;;;3.41;100.00;97581.78;1027731;28;20118;-69
2024/02/02 01:14:38;;;;;;;0.98;0.98;;;;;;;3.38;100.00;97579.53;1031389;28;20034;-68
2024/02/02 01:15:08;;;;;;;1.08;1.05;;;;;;;3.41;100.00;97584.38;1032097;28;20030;-68
2024/02/02 01:15:39;;;;;;;0.88;0.88;;;;;;;3.39;100.00;97589.75;1035633;28;20268;-68
2024/02/02 01:16:09;;;;;;;0.93;0.93;;;;;;;3.39;100.00;97581.97;1031276;28;20065;-69
2024/02/02 01:16:40;;;;;;;1.33;0.77;;;;;;;3.40;100.00;97580.97;1031537;28;20065;-69
2024/02/02 01:17:11;;;;;;;1.98;1.75;;;;;;;3.39;100.00;97584.56;1031212;28;20062;-71
2024/02/02 01:17:45;;;;;;;2.08;1.98;;;;;;;3.37;100.00;97583.91;1023403;28;20045;-69
2024/02/02 01:18:16;;;;;;;1.20;1.10;;;;;;;3.37;100.00;97586.50;1023414;29;20033;-68
2024/02/02 01:18:46;;;;;;;1.90;0.98;;;;;;;3.37;100.00;97583.91;1024034;28;20362;-68
2024/02/02 01:19:17;;;;;;;2.53;0.70;;;;;;;3.37;100.00;97583.91;1028326;28;20263;-68
2024/02/02 01:19:47;;;;;;;0.77;0.73;;;;;;;3.38;100.00;97585.53;1035956;28;20109;-69
2024/02/02 01:20:18;;;;;;;2.40;1.33;;;;;;;3.41;100.00;97592.16;1039502;28;20021;-68
2024/02/02 01:20:48;;;;;;;1.05;0.98;;;;;;;3.40;100.00;97585.38;1039940;28;20041;-68
2024/02/02 01:21:19;;;;;;;2.05;1.95;;;;;;;3.37;100.00;97588.31;1039853;28;20056;-68
2024/02/02 01:21:50;;;;;;;1.20;1.17;;;;;;;3.37;100.00;97589.09;1035443;28;20034;-67
2024/02/02 01:22:20;;;;;;;1.85;1.60;;;;;;;3.37;100.00;97589.09;1031660;28;20421;-68
2024/02/02 01:22:51;;;;;;;1.40;1.35;;;;;;;3.37;100.00;97589.09;1031472;28;20065;-67
2024/02/02 01:23:21;;;;;;;0.80;0.80;;;;;;;3.37;100.00;97588.31;1027635;28;20453;-69
2024/02/02 01:23:52;;;;;;;0.85;0.65;;;;;;;3.34;100.00;97586.84;1029110;28;20058;-69
2024/02/02 01:24:22;;;;;;;2.05;1.10;;;;;;;3.32;100.00;97578.44;1035439;28;20053;-68
2024/02/02 01:24:53;;;;;;;2.03;1.92;;;;;;;3.35;100.00;97582.47;1035445;28;20093;-68
2024/02/02 01:25:23;;;;;;;1.50;1.40;;;;;;;3.36;100.00;97582.31;1037129;28;20398;-69
2024/02/02 01:25:53;;;;;;;2.47;1.67;;;;;;;3.35;100.00;97578.09;1039855;28;20029;-68
2024/02/02 01:26:24;;;;;;;1.08;0.57;;;;;;;3.32;100.00;97575.84;1035511;28;20104;-68
2024/02/02 01:26:54;;;;;;;5.30;0.90;;;;;;;3.35;100.00;97575.47;1031276;28;20049;-68
2024/02/02 01:27:25;;;;;;;1.27;0.90;;;;;;;3.30;100.00;97573.41;1027286;28;20042;-71
2024/02/02 01:27:56;;;;;;;2.28;1.45;;;;;;;3.33;100.00;97571.47;1027562;28;20039;-69
2024/02/02 01:28:27;;;;;;;0.68;0.68;;;;;;;3.31;100.00;97574.22;1023383;28;20119;-71
2024/02/02 01:28:57;;;;;;;0.85;0.85;;;;;;;3.32;100.00;97575.84;1026644;28;20285;-68
2024/02/02 01:29:29;;;;;;;4.10;1.52;;;;;;;3.33;100.00;97569.69;1027699;28;20026;-67
2024/02/02 01:29:59;;;;;;;1.52;0.85;;;;;;;3.29;100.00;97577.00;1027957;28;20030;-68
2024/02/02 01:30:30;;;;;;;3.10;1.67;;;;;;;3.23;100.00;97561.31;1039777;28;20272;-69
2024/02/02 01:31:00;;;;;;;4.68;0.52;;;;;;;3.29;100.00;97578.78;1035185;28;20685;-68
2024/02/02 01:31:31;;;;;;;0.20;0.20;;;;;;;3.28;100.00;97569.38;1031294;28;20030;-71
2024/02/02 01:32:02;;;;;;;1.65;1.02;;;;;;;3.26;100.00;97566.97;1027443;28;20042;-69
2024/02/02 01:32:32;;;;;;;1.35;1.17;;;;;;;3.25;100.00;97564.53;1027181;28;20026;-71
2024/02/02 01:33:03;;;;;;;2.05;1.30;;;;;;;3.25;100.00;97569.72;1027338;28;20023;-68
2024/02/02 01:33:33;;;;;;;0.35;0.35;;;;;;;3.23;100.00;97567.28;1023627;28;20027;-69
2024/02/02 01:34:04;;;;;;;5.15;0.85;;;;;;;3.22;100.00;97567.44;1031186;28;20034;-67
2024/02/02 01:34:34;;;;;;;3.45;1.88;;;;;;;3.18;100.00;97563.59;1031466;28;20068;-68
2024/02/02 01:35:05;;;;;;;6.25;2.00;;;;;;;3.21;100.00;97568.44;1031467;28;20525;-69
2024/02/02 01:35:36;;;;;;;1.33;1.23;;;;;;;3.16;100.00;97562.97;1035169;28;20030;-69
2024/02/02 01:36:07;;;;;;;1.17;1.08;;;;;;;3.15;100.00;97554.34;1031518;28;20026;-67
2024/02/02 01:36:38;;;;;;;0.70;0.70;;;;;;;3.15;100.00;97556.94;1023217;29;20435;-69
2024/02/02 01:37:08;;;;;;;1.17;1.08;;;;;;;3.16;100.00;97550.00;1023293;28;20271;-70
2024/02/02 01:37:39;;;;;;;0.32;0.32;;;;;;;3.07;100.00;97544.03;1023738;28;20066;-68
2024/02/02 01:38:10;;;;;;;0.77;0.77;;;;;;;3.09;100.00;97549.88;1023185;28;20426;-69
2024/02/02 01:38:42;;;;;;;0.15;0.15;;;;;;;3.09;100.00;97546.47;1023532;28;20042;-67
2024/02/02 01:39:13;;;;;;;1.00;1.00;;;;;;;3.10;100.00;97548.09;1029479;28;20281;-68
2024/02/02 01:39:43;;;;;;;1.65;0.85;;;;;;;3.07;100.00;97542.25;1027719;28;20278;-70
2024/02/02 01:40:14;;;;;;;2.08;1.85;;;;;;;3.05;100.00;97539.03;1031829;28;20089;-69
2024/02/02 01:40:44;;;;;;;1.23;0.70;;;;;;;3.05;100.00;97536.44;1034249;28;20177;-67
2024/02/02 01:41:15;;;;;;;23.10;1.45;;;;;;;3.01;100.00;97542.13;1035551;28;20034;-68
2024/02/02 01:41:46;;;;;;;0.13;0.13;;;;;;;3.02;100.00;97533.38;1035447;28;20552;-70
2024/02/02 01:42:17;;;;;;;0.20;0.20;;;;;;;3.02;100.00;97536.78;1027044;28;20073;-68
2024/02/02 01:42:47;;;;;;;0.85;0.80;;;;;;;3.01;100.00;97532.56;1027494;28;20077;-70
2024/02/02 01:43:18;;;;;;;2.08;1.38;;;;;;;2.94;100.00;97528.22;1023385;28;20306;-68
2024/02/02 01:43:48;;;;;;;0.40;0.30;;;;;;;2.97;100.00;97531.28;1019529;29;20046;-67
2024/02/02 01:44:19;;;;;;;0.68;0.68;;;;;;;2.95;100.00;97530.66;1023609;28;20082;-69
2024/02/02 01:44:50;;;;;;;2.05;1.30;;;;;;;2.95;100.00;97528.06;1023210;28;20046;-70
2024/02/02 01:45:20;;;;;;;3.20;1.30;;;;;;;2.92;100.00;97528.41;1023518;28;20027;-69
2024/02/02 01:45:51;;;;;;;2.75;1.08;;;;;;;2.93;100.00;97524.03;1031129;28;20274;-68
2024/02/02 01:46:22;;;;;;;2.55;0.95;;;;;;;2.84;100.00;97510.28;1031263;28;20037;-70
2024/02/02 01:46:52;;;;;;;2.85;2.60;;;;;;;2.92;100.00;97527.56;1027619;28;20054;-68
2024/02/02 01:47:23;;;;;;;1.25;1.20;;;;;;;2.90;100.00;97526.94;1031235;28;20646;-69
2024/02/02 01:47:53;;;;;;;1.65;1.55;;;;;;;2.88;100.00;97526.31;1026876;28;20022;-69
2024/02/02 01:48:25;;;;;;;3.78;2.05;;;;;;;2.86;100.00;97526.47;1023579;28;20027;-67
2024/02/02 01:48:57;;;;;;;2.38;1.25;;;;;;;2.85;100.00;97519.69;1026618;28;20029;-70
2024/02/02 01:49:28;;;;;;;1.30;1.20;;;;;;;2.81;100.00;97521.78;1023896;28;20259;-70
2024/02/02 01:49:58;;;;;;;7.90;1.70;;;;;;;2.81;100.00;97518.41;1030646;28;20264;-69
2024/02/02 01:50:30;;;;;;;0.90;0.52;;;;;;;2.80;100.00;97519.38;1027187;28;20070;-68
2024/02/02 01:51:00;;;;;;;0.47;0.47;;;;;;;2.79;100.00;97517.78;1027253;28;20033;-67
2024/02/02 01:51:31;;;;;;;0.40;0.35;;;;;;;2.77;100.00;97517.13;1027184;28;20646;-68
2024/02/02 01:52:02;;;;;;;3.17;1.40;;;;;;;2.78;100.00;97516.13;1031485;28;20102;-69
2024/02/02 01:52:33;;;;;;;0.20;0.20;;;;;;;2.76;100.00;97518.09;1031334;28;20050;-68
2024/02/02 01:53:03;;;;;;;2.47;0.73;;;;;;;2.73;100.00;97516.66;1028106;28;20270;-68
2024/02/02 01:53:34;;;;;;;3.15;1.80;;;;;;;2.72;100.00;97515.03;1019271;29;20484;-68
2024/02/02 01:54:04;;;;;;;1.13;0.75;;;;;;;2.72;100.00;97516.84;1015335;29;20407;-68
2024/02/02 01:54:35;;;;;;;1.27;0.73;;;;;;;2.69;100.00;97519.75;1011575;29;20051;-69
2024/02/02 01:55:06;;;;;;;1.05;1.05;;;;;;;2.63;100.00;97510.06;1019172;29;20028;-67
2024/02/02 01:55:36;;;;;;;1.63;1.25;;;;;;;2.66;100.00;97513.13;1019104;29;20023;-68
2024/02/02 01:56:07;;;;;;;0.65;0.45;;;;;;;2.65;100.00;97521.88;1019268;29;20119;-68
2024/02/02 01:56:37;;;;;;;3.17;2.20;;;;;;;2.63;100.00;97517.84;1019456;29;20042;-68
2024/02/02 01:57:08;;;;;;;0.40;0.40;;;;;;;2.61;100.00;97520.56;1019302;29;20040;-70
2024/02/02 01:57:38;;;;;;;1.80;1.45;;;;;;;2.59;100.00;97517.38;1019489;29;20547;-69
2024/02/02 01:58:09;;;;;;;0.38;0.38;;;;;;;2.53;100.00;97521.44;1024166;28;20055;-68
2024/02/02 01:58:39;;;;;;;4.30;2.35;;;;;;;2.55;100.00;97522.06;1023195;29;20443;-71
2024/02/02 01:59:10;;;;;;;2.45;1.13;;;;;;;2.52;100.00;97519.81;1023014;28;20031;-68
2024/02/02 01:59:40;;;;;;;2.70;1.15;;;;;;;2.48;100.00;97513.38;1026987;28;20454;-68
2024/02/02 02:00:11;;;;;;;1.42;1.33;;;;;;;2.45;100.00;97513.69;1025745;28;20043;-68
2024/02/02 02:00:42;;;;;;;1.05;1.00;;;;;;;2.42;100.00;97513.22;1027099;28;20038;-69
2024/02/02 02:01:13;;;;;;;0.75;0.75;;;;;;;2.35;100.00;97506.13;1022828;29;20278;-68
2024/02/02 02:01:43;;;;;;;0.93;0.57;;;;;;;2.36;100.00;97517.28;1019388;28;20080;-68
2024/02/02 02:02:14;;;;;;;0.30;0.30;;;;;;;2.32;100.00;97516.81;1023248;28;20023;-70
2024/02/02 02:02:44;;;;;;;2.33;2.03;;;;;;;2.28;100.00;97515.53;1027037;28;20038;-68
2024/02/02 02:03:15;;;;;;;1.65;1.23;;;;;;;2.25;100.00;97515.06;1031198;28;20035;-68
2024/02/02 02:03:46;;;;;;;0.43;0.43;;;;;;;2.20;100.00;97506.97;1026987;28;20429;-70
2024/02/02 02:04:16;;;;;;;0.68;0.68;;;;;;;2.13;100.00;97512.78;1027092;28;20269;-69
2024/02/02 02:04:47;;;;;;;0.90;0.90;;;;;;;2.15;100.00;97511.81;1023285;29;20481;-68
2024/02/02 02:05:18;;;;;;;0.20;0.20;;;;;;;2.08;100.00;97504.72;1026669;28;20038;-67
2024/02/02 02:05:48;;;;;;;1.38;0.70;;;;;;;2.06;100.00;97505.84;1023144;28;20106;-71
2024/02/02 02:06:19;;;;;;;0.88;0.88;;;;;;;2.03;100.00;97506.97;1027326;28;20046;-68
2024/02/02 02:06:49;;;;;;;0.63;0.63;;;;;;;1.98;100.00;97501.50;1026831;28;20023;-68
2024/02/02 02:07:20;;;;;;;2.50;1.42;;;;;;;1.97;100.00;97507.63;1023334;28;20063;-69
2024/02/02 02:07:50;;;;;;;4.13;1.73;;;;;;;1.94;100.00;97507.97;1026945;28;20031;-67
2024/02/02 02:08:21;;;;;;;1.45;1.33;;;;;;;1.90;100.00;97511.84;1027876;28;20027;-66
2024/02/02 02:08:51;;;;;;;1.85;0.65;;;;;;;1.87;100.00;97510.41;1031281;28;20042;-68
2024/02/02 02:09:22;;;;;;;1.73;1.63;;;;;;;1.84;100.00;97508.13;1030583;28;20551;-68
2024/02/02 02:09:52;;;;;;;2.15;0.82;;;;;;;1.76;100.00;97502.97;1027086;28;20023;-69
2024/02/02 02:10:24;;;;;;;0.63;0.63;;;;;;;1.79;100.00;97504.44;1022952;29;20027;-67
2024/02/02 02:10:54;;;;;;;0.43;0.43;;;;;;;1.76;100.00;97509.94;1023407;28;20440;-67
2024/02/02 02:11:25;;;;;;;0.55;0.52;;;;;;;1.74;100.00;97506.69;1023679;28;20271;-67
2024/02/02 02:11:55;;;;;;;1.45;0.75;;;;;;;1.72;100.00;97503.47;1031232;28;20031;-70
2024/02/02 02:12:26;;;;;;;1.67;0.73;;;;;;;1.70;100.00;97500.22;1031631;28;20027;-71
2024/02/02 02:12:57;;;;;;;0.85;0.85;;;;;;;1.67;100.00;97500.56;1031800;28;20034;-74
2024/02/02 02:13:27;;;;;;;0.38;0.38;;;;;;;1.65;100.00;97500.72;1032497;28;20058;-71
2024/02/02 02:13:58;;;;;;;3.13;2.53;;;;;;;1.61;100.00;97496.81;1027620;28;20403;-73
2024/02/02 02:14:29;;;;;;;0.55;0.55;;;;;;;1.62;100.00;97496.69;1027064;29;20047;-73
2024/02/02 02:14:59;;;;;;;0.75;0.57;;;;;;;1.61;100.00;97502.84;1027352;29;20057;-71
2024/02/02 02:15:30;;;;;;;2.13;0.98;;;;;;;1.59;100.00;97499.59;1030850;28;20272;-69
2024/02/02 02:16:00;;;;;;;0.40;0.40;;;;;;;1.59;100.00;97499.59;1031633;28;20027;-71
2024/02/02 02:16:31;;;;;;;1.40;0.73;;;;;;;1.59;100.00;97494.41;1027445;28;20062;-70
2024/02/02 02:17:01;;;;;;;0.65;0.65;;;;;;;1.63;100.00;97500.88;1019254;29;20052;-71
2024/02/02 02:17:32;;;;;;;0.40;0.40;;;;;;;1.62;100.00;97495.88;1016188;29;20083;-69
2024/02/02 02:18:03;;;;;;;0.75;0.75;;;;;;;1.62;100.00;97494.09;1015529;29;20034;-67
2024/02/02 02:18:34;;;;;;;1.10;0.90;;;;;;;1.62;100.00;97494.09;1023631;28;20358;-70
2024/02/02 02:19:04;;;;;;;3.30;1.50;;;;;;;1.63;100.00;97497.47;1030624;28;20065;-69
2024/02/02 02:19:36;;;;;;;1.20;0.82;;;;;;;1.58;100.00;97486.81;1035401;28;20293;-68
2024/02/02 02:20:12;;;;;;;7.13;2.67;;;;;;;1.63;100.00;97497.47;1027007;28;20454;-70
2024/02/02 02:20:43;;;;;;;0.70;0.70;;;;;;;1.62;100.00;97499.25;1023790;28;21121;-68
2024/02/02 02:21:40;;;;;;;0.32;0.32;;;;;;;1.62;100.00;97496.69;1023324;29;20286;-68
2024/02/02 02:22:10;;;;;;;0.22;0.10;;;;;;;1.63;100.00;97495.69;1024235;28;20066;-70
2024/02/02 02:22:40;;;;;;;0.20;0.17;;;;;;;1.63;100.00;97495.69;1030183;28;20276;-68
2024/02/02 02:23:11;;;;;;;2.28;0.88;;;;;;;1.63;100.00;97495.69;1034223;28;20033;-67
2024/02/02 02:23:41;;;;;;;0.30;0.30;;;;;;;1.62;100.00;97499.25;1031835;28;20358;-67
2024/02/02 02:24:12;;;;;;;1.15;1.15;;;;;;;1.55;100.00;97482.78;1031459;28;20034;-68
2024/02/02 02:24:42;;;;;;;2.10;1.15;;;;;;;1.62;100.00;97488.91;1027151;28;20402;-68
2024/02/02 02:25:13;;;;;;;1.00;0.90;;;;;;;1.62;100.00;97491.50;1023678;28;20064;-67